Time;durP1;ratioP1;P1;durP2;ratioP2;P2;SDS_P1;SDS_P2;PMS_P1;PMS_P2;Temp;Humidity;BMP_temperature;BMP_pressure;BME280_temperature;BME280_humidity;BME280_pressure;Samples;Min_cycle;Max_cycle;Signal;HPM_P1;HPM_P2
2024/01/30 05:41:45;;;;;;;6.35;3.55;;;-1.10;99.90;;;;;;7607494;19;20359;-71
2024/01/30 05:44:17;;;;;;;5.15;3.08;;;-1.20;99.90;;;;;;7612218;19;20018;-72
2024/01/30 05:46:49;;;;;;;9.57;3.78;;;-1.10;99.90;;;;;;7614709;19;20016;-72
2024/01/30 05:49:22;;;;;;;8.88;3.38;;;-1.00;99.90;;;;;;7620837;19;20026;-72
2024/01/30 05:51:55;;;;;;;10.98;3.67;;;-0.80;99.90;;;;;;7616735;19;20018;-72
2024/01/30 05:54:28;;;;;;;13.30;4.07;;;-0.70;99.90;;;;;;7609832;19;20018;-72
2024/01/30 05:57:00;;;;;;;15.30;3.92;;;-0.60;99.90;;;;;;7618577;19;20026;-71
2024/01/30 05:59:32;;;;;;;12.85;4.05;;;-0.60;99.90;;;;;;7607774;19;20010;-72
2024/01/30 06:02:05;;;;;;;8.40;3.90;;;-0.50;99.90;;;;;;7620372;19;20007;-72
2024/01/30 06:04:37;;;;;;;9.63;3.58;;;-0.50;99.90;;;;;;7608679;19;20024;-72
2024/01/30 06:07:10;;;;;;;6.85;3.85;;;-0.50;99.90;;;;;;7622442;19;20010;-72
2024/01/30 06:09:43;;;;;;;5.28;3.40;;;-0.60;99.90;;;;;;7594078;19;20029;-72
2024/01/30 06:12:15;;;;;;;8.45;3.97;;;-0.60;99.90;;;;;;7602719;19;20010;-71
2024/01/30 06:14:48;;;;;;;7.72;3.47;;;-0.50;99.90;;;;;;7614370;19;22098;-72
2024/01/30 06:17:20;;;;;;;10.53;4.23;;;-0.50;99.90;;;;;;7617390;19;20014;-71
2024/01/30 06:19:53;;;;;;;12.10;4.35;;;-0.50;99.90;;;;;;7610084;19;20285;-72
2024/01/30 06:22:25;;;;;;;6.68;4.05;;;-0.40;99.90;;;;;;7619441;19;20084;-72
2024/01/30 06:24:57;;;;;;;6.13;3.67;;;-0.40;99.90;;;;;;7603524;19;20113;-72
2024/01/30 06:27:30;;;;;;;7.75;4.70;;;-0.40;99.90;;;;;;7618518;19;20021;-72
2024/01/30 06:30:03;;;;;;;9.93;5.03;;;-0.30;99.90;;;;;;7607823;19;20025;-71
2024/01/30 06:32:36;;;;;;;7.70;4.40;;;-0.30;99.90;;;;;;7614523;19;20741;-72
2024/01/30 06:35:10;;;;;;;12.80;5.40;;;-0.40;99.90;;;;;;7618281;19;20018;-72
2024/01/30 06:37:42;;;;;;;11.60;4.63;;;0.00;99.90;;;;;;7611993;19;20050;-71
2024/01/30 06:40:15;;;;;;;13.07;4.60;;;0.20;99.90;;;;;;7630075;19;20021;-72
2024/01/30 06:42:47;;;;;;;15.82;5.30;;;0.30;99.90;;;;;;7627684;19;20039;-71
2024/01/30 06:45:20;;;;;;;9.93;5.47;;;0.40;99.90;;;;;;7627599;19;20017;-72
2024/01/30 06:47:52;;;;;;;10.68;4.95;;;0.20;99.90;;;;;;7624186;19;20006;-71
2024/01/30 06:50:24;;;;;;;9.55;4.93;;;0.00;99.90;;;;;;7626341;19;20018;-71
2024/01/30 06:52:56;;;;;;;10.00;5.78;;;-0.20;99.90;;;;;;7604150;19;20038;-71
2024/01/30 06:55:29;;;;;;;14.55;4.90;;;-0.30;99.90;;;;;;7597741;19;20018;-73
2024/01/30 06:58:01;;;;;;;9.70;5.40;;;-0.30;99.90;;;;;;7601852;19;20022;-72
2024/01/30 07:00:33;;;;;;;12.30;5.63;;;-0.40;99.90;;;;;;7598488;19;20912;-72
2024/01/30 07:03:06;;;;;;;9.18;4.90;;;-0.30;99.90;;;;;;7591831;19;20022;-71
2024/01/30 07:05:39;;;;;;;11.50;5.10;;;-0.30;99.90;;;;;;7593513;19;20020;-71
2024/01/30 07:08:11;;;;;;;10.38;5.72;;;-0.30;99.90;;;;;;7597430;19;20015;-71
2024/01/30 07:10:44;;;;;;;16.90;6.07;;;-0.30;99.90;;;;;;7589825;19;20022;-71
2024/01/30 07:13:16;;;;;;;10.05;5.78;;;-0.40;99.90;;;;;;7593885;19;20029;-71
2024/01/30 07:15:48;;;;;;;11.57;5.20;;;-0.30;99.90;;;;;;7583282;19;20039;-71
2024/01/30 07:18:21;;;;;;;12.38;5.32;;;-0.30;99.90;;;;;;7595295;19;20476;-73
2024/01/30 07:20:53;;;;;;;12.63;6.93;;;-0.40;99.90;;;;;;7594829;19;20050;-71
2024/01/30 07:23:26;;;;;;;10.07;5.82;;;-0.40;99.90;;;;;;7600370;19;20038;-71
2024/01/30 07:25:59;;;;;;;10.90;5.55;;;-0.30;99.90;;;;;;7604753;19;20014;-71
2024/01/30 15:37:06;;;;;;;22.23;4.85;;;12.00;70.50;;;;;;7639608;19;20375;-77
2024/01/30 15:39:41;;;;;;;18.15;4.53;;;11.40;72.00;;;;;;7649415;19;21172;-80
2024/01/30 15:42:13;;;;;;;16.15;4.47;;;11.30;73.90;;;;;;7640288;19;20017;-80
2024/01/30 15:44:45;;;;;;;18.95;4.65;;;11.10;76.40;;;;;;7649164;19;20022;-79
2024/01/30 15:47:18;;;;;;;24.58;4.68;;;10.90;76.20;;;;;;7655016;19;20025;-77
2024/01/30 15:49:51;;;;;;;14.05;4.25;;;10.80;76.20;;;;;;7654264;19;20010;-79
2024/01/30 15:52:23;;;;;;;16.53;3.47;;;10.60;76.10;;;;;;7649620;19;20022;-79
2024/01/30 15:54:56;;;;;;;13.07;3.78;;;10.50;76.30;;;;;;7659570;19;20010;-80
2024/01/30 15:57:28;;;;;;;14.77;4.07;;;10.50;77.10;;;;;;7659426;19;20015;-79
2024/01/30 16:00:03;;;;;;;11.40;3.58;;;10.30;77.50;;;;;;7662740;19;20043;-78
2024/01/30 16:02:42;;;;;;;15.13;3.40;;;10.20;76.50;;;;;;7664724;19;20037;-79
2024/01/30 16:05:21;;;;;;;16.42;3.63;;;10.00;77.20;;;;;;7664676;19;20561;-79
2024/01/30 16:07:55;;;;;;;;;;;9.90;79.00;;;;;;7661144;19;21005;-78
2024/01/30 16:10:27;;;;;;;7.82;3.22;;;9.80;79.60;;;;;;7660479;19;19915;-78
2024/01/30 16:13:03;;;;;;;12.50;3.90;;;9.70;80.60;;;;;;7650068;19;20121;-82
2024/01/30 16:15:39;;;;;;;16.90;3.90;;;9.50;80.90;;;;;;7640423;19;20037;-80
2024/01/30 16:18:17;;;;;;;18.02;4.70;;;9.40;81.80;;;;;;7653255;19;20014;-79
2024/01/30 16:20:49;;;;;;;10.30;4.25;;;9.30;82.00;;;;;;7657802;19;20006;-79
2024/01/30 16:23:22;;;;;;;;;;;9.10;82.50;;;;;;7654553;19;20380;-78
2024/01/30 16:25:54;;;;;;;21.55;4.60;;;8.90;83.70;;;;;;7651899;19;19926;-79
2024/01/30 16:28:27;;;;;;;14.23;4.50;;;8.70;84.70;;;;;;7642306;19;20010;-78
2024/01/30 16:31:02;;;;;;;14.23;4.82;;;8.50;85.20;;;;;;7652144;19;20011;-78
2024/01/30 16:33:40;;;;;;;12.60;4.32;;;8.40;85.40;;;;;;7654254;19;20014;-79
2024/01/30 16:36:19;;;;;;;14.70;6.00;;;8.40;86.50;;;;;;7648927;19;20010;-81
2024/01/30 16:39:02;;;;;;;14.07;5.68;;;8.30;86.50;;;;;;7632021;19;20010;-78
2024/01/30 16:41:41;;;;;;;18.52;5.20;;;8.30;86.70;;;;;;7630367;19;20010;-78
2024/01/30 16:44:19;;;;;;;24.13;5.35;;;8.20;87.00;;;;;;7648930;19;20010;-81
2024/01/30 16:46:57;;;;;;;19.85;7.05;;;8.10;87.90;;;;;;7626880;19;20461;-79
2024/01/30 16:49:34;;;;;;;25.30;8.25;;;8.00;88.40;;;;;;7619242;19;20473;-79
2024/01/30 16:52:13;;;;;;;14.13;5.65;;;7.90;88.60;;;;;;7628164;19;20022;-79
2024/01/30 16:54:49;;;;;;;25.98;6.00;;;7.70;89.80;;;;;;7610062;19;20013;-79
2024/01/30 16:57:22;;;;;;;29.08;8.50;;;7.50;90.20;;;;;;7627618;19;20011;-77
2024/01/30 16:59:54;;;;;;;18.35;7.57;;;7.30;90.70;;;;;;7627956;19;21278;-78
2024/01/30 17:02:32;;;;;;;25.33;6.88;;;7.20;91.10;;;;;;7629304;19;20014;-77
2024/01/30 17:05:09;;;;;;;13.98;6.63;;;7.20;91.50;;;;;;7601410;19;20036;-76
2024/01/30 17:07:58;;;;;;;19.23;6.85;;;7.10;91.90;;;;;;7610762;19;20010;-80
2024/01/30 17:10:30;;;;;;;32.78;8.45;;;7.00;92.30;;;;;;7616900;19;20013;-78
2024/01/30 17:13:11;;;;;;;24.92;11.13;;;6.90;92.50;;;;;;7625386;19;20062;-79
2024/01/30 17:15:47;;;;;;;28.25;11.23;;;6.80;93.20;;;;;;7616753;19;20057;-78
2024/01/30 17:18:22;;;;;;;40.00;18.27;;;6.60;94.10;;;;;;7627893;19;20018;-77
2024/01/30 17:20:55;;;;;;;32.67;14.63;;;6.50;94.40;;;;;;7620197;19;20040;-77
2024/01/30 17:23:34;;;;;;;20.27;10.10;;;6.50;94.60;;;;;;7622928;19;20497;-77
2024/01/30 17:26:06;;;;;;;31.88;11.68;;;6.50;94.90;;;;;;7613708;19;20018;-77
2024/01/30 17:28:45;;;;;;;26.10;11.82;;;6.40;95.30;;;;;;7618835;19;20006;-77
2024/01/30 17:31:22;;;;;;;35.78;14.65;;;6.30;96.00;;;;;;7626342;19;20011;-78
2024/01/30 17:33:58;;;;;;;38.67;21.08;;;6.30;96.40;;;;;;7624880;19;20038;-78
2024/01/30 17:36:32;;;;;;;36.25;16.85;;;6.30;96.70;;;;;;7614070;19;20496;-77
2024/01/30 17:39:11;;;;;;;37.47;16.90;;;6.20;97.20;;;;;;7609693;19;20018;-77
2024/01/30 17:41:45;;;;;;;40.65;17.35;;;6.30;97.40;;;;;;7616039;19;20010;-78
2024/01/30 17:44:23;;;;;;;36.83;18.52;;;6.30;97.30;;;;;;7615225;19;20015;-78
2024/01/30 17:46:57;;;;;;;45.72;25.80;;;6.30;97.80;;;;;;7626926;19;20025;-80
2024/01/30 17:49:33;;;;;;;41.97;20.50;;;6.40;98.20;;;;;;7620952;19;20555;-78
2024/01/30 17:52:12;;;;;;;119.18;29.75;;;6.30;98.20;;;;;;7603285;19;20026;-79
2024/01/30 17:54:44;;;;;;;76.93;26.90;;;6.30;99.90;;;;;;7591634;19;20025;-78
2024/01/30 17:57:18;;;;;;;46.70;22.10;;;6.10;99.90;;;;;;7607296;19;20429;-79
2024/01/30 17:59:50;;;;;;;46.50;22.27;;;5.90;99.90;;;;;;7609326;19;20018;-78
2024/01/30 18:02:23;;;;;;;53.65;28.10;;;5.90;99.90;;;;;;7618625;19;20437;-79
2024/01/30 18:04:57;;;;;;;39.50;22.58;;;5.90;99.90;;;;;;7599771;19;20470;-79
2024/01/30 18:07:32;;;;;;;43.83;23.25;;;5.80;99.90;;;;;;7615345;19;20025;-79
2024/01/30 18:10:08;;;;;;;40.60;21.65;;;5.80;99.90;;;;;;7605055;19;20061;-78
2024/01/30 18:12:42;;;;;;;41.95;22.98;;;5.60;99.90;;;;;;7612057;19;20018;-78
2024/01/30 18:15:14;;;;;;;41.25;20.20;;;5.40;99.90;;;;;;7612937;19;20054;-79
2024/01/30 18:17:46;;;;;;;35.60;19.25;;;5.30;99.90;;;;;;7609691;19;20082;-79
2024/01/30 18:20:19;;;;;;;40.08;17.52;;;5.20;99.90;;;;;;7614534;19;20014;-80
2024/01/30 18:22:51;;;;;;;32.08;16.67;;;5.20;99.90;;;;;;7608898;19;20014;-80
2024/01/30 18:25:24;;;;;;;31.30;16.37;;;5.00;99.90;;;;;;7612528;19;20039;-79
2024/01/30 18:27:56;;;;;;;34.50;15.23;;;5.00;99.90;;;;;;7619078;19;20627;-79
2024/01/30 18:30:28;;;;;;;41.60;17.63;;;4.80;99.90;;;;;;7616234;19;20014;-78
2024/01/30 18:33:02;;;;;;;39.63;16.33;;;4.90;99.90;;;;;;7610730;19;20024;-79
2024/01/30 18:35:35;;;;;;;34.20;15.95;;;4.80;99.90;;;;;;7613398;19;20477;-77
2024/01/30 18:38:07;;;;;;;40.55;17.35;;;4.80;99.90;;;;;;7605363;19;20021;-78
2024/01/30 18:40:40;;;;;;;37.05;18.33;;;4.80;99.90;;;;;;7613547;19;20021;-77
2024/01/30 18:43:12;;;;;;;48.25;22.58;;;4.90;99.90;;;;;;7612264;19;20909;-78
2024/01/30 18:45:53;;;;;;;46.83;21.85;;;5.00;99.90;;;;;;7610740;19;20023;-78
2024/01/30 18:48:25;;;;;;;39.75;20.42;;;5.00;99.90;;;;;;7608395;19;20494;-78
2024/01/30 18:50:59;;;;;;;39.42;19.50;;;5.10;99.90;;;;;;7610998;19;20018;-79
2024/01/30 18:53:32;;;;;;;43.05;21.88;;;5.10;99.90;;;;;;7613426;19;20017;-79
2024/01/30 18:56:05;;;;;;;46.00;22.37;;;5.20;99.90;;;;;;7608661;19;20023;-77
2024/01/30 18:58:37;;;;;;;39.75;20.88;;;5.30;99.90;;;;;;7620730;19;20006;-77
2024/01/30 19:01:10;;;;;;;41.00;18.85;;;5.30;99.90;;;;;;7622031;19;20010;-78
2024/01/30 19:03:43;;;;;;;32.25;17.25;;;5.20;99.90;;;;;;7613496;19;20018;-79
2024/01/30 19:06:15;;;;;;;36.95;17.95;;;5.20;99.90;;;;;;7612471;19;20017;-78
2024/01/30 19:08:47;;;;;;;37.05;17.90;;;5.20;99.90;;;;;;7623038;19;20499;-77
2024/01/30 19:11:20;;;;;;;35.95;18.77;;;5.20;99.90;;;;;;7621982;19;20030;-78
2024/01/30 19:13:53;;;;;;;31.48;15.70;;;5.10;99.90;;;;;;7104798;19;9999726;-78
2024/01/30 19:16:25;;;;;;;37.20;17.20;;;5.10;99.90;;;;;;7619966;19;20387;-81
2024/01/30 19:18:58;;;;;;;36.93;18.63;;;5.00;99.90;;;;;;7619723;19;20090;-79
2024/01/30 19:21:30;;;;;;;41.20;17.23;;;4.90;99.90;;;;;;7618945;19;20029;-79
2024/01/30 19:24:04;;;;;;;43.55;17.98;;;5.00;99.90;;;;;;7614067;19;20492;-79
2024/01/30 19:26:38;;;;;;;39.95;14.88;;;4.90;99.90;;;;;;7621857;19;20058;-78
2024/01/30 19:29:11;;;;;;;33.53;16.48;;;4.90;99.90;;;;;;7623639;19;20006;-77
2024/01/30 19:31:43;;;;;;;35.72;14.65;;;4.90;99.90;;;;;;7613471;19;20488;-78
2024/01/30 19:34:21;;;;;;;35.28;13.20;;;4.80;99.90;;;;;;7614510;19;20098;-77
2024/01/30 19:36:57;;;;;;;32.42;14.15;;;4.90;99.90;;;;;;7618114;19;20002;-76
2024/01/30 19:39:30;;;;;;;31.57;15.73;;;5.00;99.90;;;;;;7624986;19;20021;-77
2024/01/30 19:42:02;;;;;;;41.90;13.93;;;5.10;99.90;;;;;;7617425;19;20525;-78
2024/01/30 19:44:35;;;;;;;29.65;13.65;;;5.10;99.90;;;;;;7617324;19;20424;-78
2024/01/30 19:47:09;;;;;;;38.17;15.13;;;5.10;99.90;;;;;;7622547;19;20058;-77
2024/01/30 19:49:41;;;;;;;40.55;17.00;;;5.10;99.90;;;;;;7617543;19;20036;-77
2024/01/30 19:52:14;;;;;;;34.33;16.35;;;5.00;99.90;;;;;;7605988;19;20018;-80
2024/01/30 19:54:46;;;;;;;33.00;16.63;;;5.00;99.90;;;;;;7605565;19;20021;-77
2024/01/30 19:57:18;;;;;;;36.10;15.23;;;4.90;99.90;;;;;;7620037;19;20602;-77
2024/01/30 19:59:52;;;;;;;34.60;16.25;;;4.90;99.90;;;;;;7612830;19;20022;-78
2024/01/30 20:02:25;;;;;;;32.83;15.18;;;4.90;99.90;;;;;;7619176;19;20015;-79
2024/01/30 20:04:58;;;;;;;48.17;14.68;;;4.90;99.90;;;;;;7611073;19;20038;-77
2024/01/30 20:07:31;;;;;;;37.88;16.42;;;4.80;99.90;;;;;;7614558;19;20031;-78
2024/01/30 20:10:04;;;;;;;36.17;15.40;;;4.80;99.90;;;;;;7612738;19;20696;-77
2024/01/30 20:12:41;;;;;;;38.53;19.23;;;4.80;99.90;;;;;;7614980;19;20018;-78
2024/01/30 20:15:14;;;;;;;43.75;19.33;;;4.60;99.90;;;;;;7614430;19;20410;-79
2024/01/30 20:17:47;;;;;;;38.08;17.63;;;4.60;99.90;;;;;;7616270;19;20051;-78
2024/01/30 20:20:20;;;;;;;51.10;19.05;;;4.50;99.90;;;;;;7621378;19;20018;-79
2024/01/30 20:22:52;;;;;;;43.80;17.13;;;4.50;99.90;;;;;;7612121;19;20413;-77
2024/01/30 20:25:24;;;;;;;37.95;18.23;;;4.60;99.90;;;;;;7627456;19;20018;-76
2024/01/30 20:27:57;;;;;;;36.95;17.65;;;4.50;99.90;;;;;;7625026;19;20014;-79
2024/01/30 20:30:30;;;;;;;38.08;15.50;;;4.50;99.90;;;;;;7624618;19;20015;-76
2024/01/30 20:33:03;;;;;;;48.63;16.20;;;4.50;99.90;;;;;;7625169;19;20015;-77
2024/01/30 20:35:35;;;;;;;37.63;14.85;;;4.50;99.90;;;;;;7624022;19;20134;-78
2024/01/30 20:38:07;;;;;;;33.67;15.10;;;4.50;99.90;;;;;;7614316;19;20002;-76
2024/01/30 20:40:39;;;;;;;34.88;14.75;;;4.60;99.90;;;;;;7625449;19;20040;-77
2024/01/30 20:43:11;;;;;;;33.97;15.82;;;4.70;99.90;;;;;;7623355;19;20014;-77
2024/01/30 20:45:44;;;;;;;35.05;16.80;;;4.70;99.90;;;;;;7625719;19;20042;-78
2024/01/30 20:48:17;;;;;;;32.38;16.00;;;4.60;99.90;;;;;;7623801;19;20031;-78
2024/01/30 20:50:49;;;;;;;38.88;17.17;;;4.60;99.90;;;;;;7628853;19;20022;-76
2024/01/30 20:53:22;;;;;;;36.92;16.58;;;4.50;99.90;;;;;;7635110;19;21076;-78
2024/01/30 20:55:54;;;;;;;37.00;16.90;;;4.40;99.90;;;;;;7660115;19;20019;-79
2024/01/30 20:58:28;;;;;;;36.67;16.92;;;4.30;99.90;;;;;;7621394;19;20026;-78
2024/01/30 21:01:00;;;;;;;41.83;17.25;;;4.10;99.90;;;;;;7630139;19;20089;-78
2024/01/30 21:03:33;;;;;;;42.20;17.33;;;4.20;99.90;;;;;;7628445;19;20507;-78
2024/01/30 21:06:06;;;;;;;37.92;18.80;;;4.10;99.90;;;;;;7629381;19;20089;-78
2024/01/30 21:08:42;;;;;;;37.38;19.38;;;4.00;99.90;;;;;;7628049;19;20098;-78
2024/01/30 21:11:14;;;;;;;34.05;16.33;;;4.00;99.90;;;;;;7621102;19;20018;-77
2024/01/30 21:13:46;;;;;;;39.80;17.10;;;4.10;99.90;;;;;;7625942;19;20018;-79
2024/01/30 21:16:18;;;;;;;40.83;16.15;;;4.20;99.90;;;;;;7630004;19;20014;-76
2024/01/30 21:18:51;;;;;;;35.85;15.55;;;4.20;99.90;;;;;;7621076;19;20029;-77
